Idman, Idaho
Current Conditions -  °F | °C
As of 7:53 PM on Friday 21 Nov 2014 (Local Time) from KRXE Reporting Station
Clear Clear  
Wind Chill: 30°   Ceiling: Unl
Heat Index: 36°   Visibility: 10mi
Dew Point: 25°   Wind: 8mph
Humidity: 64%   Direction: 200°SSW
Pressure: 29.9"   Gusts: NA
Location:  44.2396°N, 112.579°W
Report Text: KRXE 220253Z AUTO 20007KT 10SM CLR 02/M04 A2990 RMK AO2 SLP152 T00221039 58014
Loading
Personal Weather Stations






























Interactive Weather Map New forecast layout! Learn more

10-Day Weather Forecast

Advertisements
Track Severe Weather on mobile